CheckWX is a tool to help pilots better visualize weather data.  It is not intended as a substitute for an official pre-flight weather briefing.

04:21:34 UTC

WMKJ TAF
Senai International Airport
Senai, Malaysia
TAF WMKJ 092300Z 1000/1100 04005KT 9000 -RA FEW017CB TEMPO 1007/1011 3000 TSRA FEW010 FEW016CB SCT018

Dec-10@
00:00 UTC

Dec-10 @ 00:00 UTC

Dec-11@
00:00 UTC

Dec-11 @ 00:00 UTC

TAF WMKJ 092300Z 1000/1100 04005KT 9000 -RA FEW017CB
Wind
  • 040° at 5 KTS
Conditions
Light Rain
Cloud Levels
  • Few at 1,700' AGL

Dec-10@
07:00 UTC

Dec-10 @ 07:00 UTC

Dec-10@
11:00 UTC

Dec-10 @ 11:00 UTC

TEMPO 1007/1011 3000 TSRA FEW010 FEW016CB SCT018

Temporary

Temporary Changes expected for less than half the time period

Conditions
Thunderstorm, Rain
Cloud Levels
  • Few at 1,000' AGL
  • Few at 1,600' AGL
  • Scattered at 1,800' AGL